Time;durP1;ratioP1;P1;durP2;ratioP2;P2;SDS_P1;SDS_P2;PMS_P1;PMS_P2;Temp;Humidity;BMP_temperature;BMP_pressure;BME280_temperature;BME280_humidity;BME280_pressure;Samples;Min_cycle;Max_cycle;Signal;HPM_P1;HPM_P2
2023/03/11 00:01:06;;;;;;;2.47;1.27;;;;;;;1.84;86.01;97768.25;4960567;28;20240;-62
2023/03/11 00:03:33;;;;;;;3.17;1.70;;;;;;;1.75;85.47;97778.31;4956513;28;20233;-62
2023/03/11 00:06:01;;;;;;;3.93;1.90;;;;;;;1.69;87.02;97785.69;4961469;28;20245;-62
2023/03/11 00:08:28;;;;;;;2.10;1.47;;;;;;;1.74;84.00;97799.84;4958789;28;20229;-62
2023/03/11 00:10:57;;;;;;;3.80;1.60;;;;;;;1.82;85.63;97798.44;4958201;28;20266;-62
2023/03/11 00:13:24;;;;;;;3.77;1.80;;;;;;;1.89;83.63;97792.72;4958409;28;20225;-62
2023/03/11 00:15:55;;;;;;;2.17;1.40;;;;;;;1.95;83.93;97788.06;4959145;28;20293;-62
2023/03/11 00:18:25;;;;;;;3.80;1.80;;;;;;;1.99;83.86;97785.13;4960085;28;20236;-62
2023/03/11 00:20:53;;;;;;;5.37;1.47;;;;;;;2.03;83.31;97780.56;4958960;28;20232;-62
2023/03/11 00:23:19;;;;;;;2.60;1.50;;;;;;;2.08;81.00;97772.47;4957710;28;20737;-62
2023/03/11 00:25:47;;;;;;;3.90;1.70;;;;;;;2.05;82.87;97784.66;4973316;28;20304;-62
2023/03/11 00:28:15;;;;;;;3.10;1.60;;;;;;;2.08;82.74;97793.06;4960193;28;20567;-62
2023/03/11 00:30:43;;;;;;;3.27;1.47;;;;;;;2.05;82.99;97783.84;4948576;28;20241;-62
2023/03/11 00:33:14;;;;;;;5.33;1.97;;;;;;;2.04;83.10;97777.84;4960738;28;20708;-63
2023/03/11 00:35:41;;;;;;;3.63;1.83;;;;;;;2.03;83.52;97799.38;4956034;28;20226;-63
2023/03/11 00:38:12;;;;;;;4.87;2.17;;;;;;;2.00;84.26;97794.47;4959591;28;20255;-63
2023/03/11 00:40:39;;;;;;;5.20;1.57;;;;;;;2.03;84.94;97812.25;4958746;28;20236;-63
2023/03/11 00:43:05;;;;;;;8.13;2.27;;;;;;;2.00;84.31;97807.34;4959673;28;20241;-63
2023/03/11 00:45:32;;;;;;;4.73;2.00;;;;;;;1.98;84.28;97809.22;4958285;28;20222;-63
2023/03/11 00:47:59;;;;;;;6.43;2.03;;;;;;;2.00;85.67;97804.78;4961202;28;20238;-62
2023/03/11 00:50:29;;;;;;;4.33;2.50;;;;;;;2.02;84.82;97809.81;4958454;28;20229;-62
2023/03/11 00:52:57;;;;;;;3.77;1.90;;;;;;;1.98;84.25;97780.91;4948110;28;20661;-62
2023/03/11 00:55:27;;;;;;;5.47;1.97;;;;;;;1.95;86.70;97788.06;4957860;28;20645;-62
2023/03/11 00:58:00;;;;;;;4.23;1.63;;;;;;;1.92;85.58;97796.81;4973347;28;20715;-62
2023/03/11 01:00:31;;;;;;;6.53;2.83;;;;;;;1.92;84.89;97807.94;4948917;28;20291;-62
2023/03/11 01:02:59;;;;;;;2.37;1.73;;;;;;;1.88;85.74;97801.38;4961634;28;20253;-62
2023/03/11 01:05:29;;;;;;;5.03;2.00;;;;;;;1.88;86.50;97796.25;4949615;28;20297;-62
2023/03/11 01:07:57;;;;;;;4.37;2.20;;;;;;;1.87;86.36;97793.75;4958766;28;20230;-62
2023/03/11 01:10:24;;;;;;;2.87;1.87;;;;;;;1.84;86.60;97797.41;4958454;28;20271;-62
2023/03/11 01:12:51;;;;;;;5.20;2.10;;;;;;;1.82;86.37;97812.13;4948081;28;20268;-62
2023/03/11 01:15:20;;;;;;;3.70;1.97;;;;;;;1.82;87.08;97822.44;4969891;28;20223;-62
2023/03/11 01:17:47;;;;;;;2.70;1.77;;;;;;;1.79;86.34;97835.53;4946833;28;20256;-62
2023/03/11 01:20:14;;;;;;;4.77;2.30;;;;;;;1.84;86.20;97850.59;4959027;28;20617;-62
2023/03/11 01:22:42;;;;;;;3.00;1.80;;;;;;;1.81;85.61;97845.69;4957306;28;20587;-62
2023/03/11 01:25:13;;;;;;;7.70;2.40;;;;;;;1.74;85.49;97842.78;4956821;28;20435;-62
2023/03/11 01:27:39;;;;;;;4.60;2.27;;;;;;;1.70;85.94;97842.16;4956757;28;20245;-62
2023/03/11 01:30:07;;;;;;;5.53;2.13;;;;;;;1.67;87.22;97844.97;4952085;28;20238;-62
2023/03/11 01:32:34;;;;;;;4.73;2.07;;;;;;;1.62;87.54;97844.47;4947600;28;20333;-62
2023/03/11 01:35:01;;;;;;;5.33;1.90;;;;;;;1.59;87.80;97822.38;4950749;28;20359;-62
2023/03/11 01:37:27;;;;;;;5.70;2.50;;;;;;;1.53;88.24;97819.47;4957432;28;20459;-62
2023/03/11 01:39:55;;;;;;;6.37;2.00;;;;;;;1.49;88.90;97807.75;4958602;28;20728;-62
2023/03/11 01:42:22;;;;;;;6.40;3.10;;;;;;;1.43;88.96;97817.56;4958343;28;20269;-62
2023/03/11 01:44:49;;;;;;;4.30;1.80;;;;;;;1.41;88.46;97818.59;4957161;28;20666;-62
2023/03/11 01:47:39;;;;;;;2.83;2.10;;;;;;;1.35;89.21;97811.34;4957473;28;20308;-62
2023/03/11 01:50:12;;;;;;;4.50;2.40;;;;;;;1.39;89.63;97810.19;4957047;28;20304;-62
2023/03/11 01:52:42;;;;;;;7.83;2.47;;;;;;;1.35;89.57;97813.91;4956428;28;20253;-62
2023/03/11 01:55:12;;;;;;;4.67;2.03;;;;;;;1.35;90.00;97822.44;4958613;28;20244;-62
2023/03/11 01:57:42;;;;;;;5.93;1.97;;;;;;;1.33;90.34;97806.31;4955147;28;20217;-62
2023/03/11 02:00:14;;;;;;;4.30;2.10;;;;;;;1.32;89.90;97818.34;4960222;28;20582;-62
2023/03/11 02:02:43;;;;;;;5.77;1.90;;;;;;;1.30;90.16;97806.53;4954634;28;20736;-62
2023/03/11 02:05:10;;;;;;;4.37;1.87;;;;;;;1.32;90.26;97830.38;4951207;28;20309;-62
2023/03/11 02:07:38;;;;;;;3.70;1.93;;;;;;;1.31;89.45;97824.41;4953620;28;20240;-62
2023/03/11 02:10:07;;;;;;;5.57;2.30;;;;;;;1.31;91.47;97831.31;4960048;28;20249;-62
2023/03/11 02:12:37;;;;;;;3.93;1.80;;;;;;;1.28;90.70;97823.84;4945365;28;20272;-62
2023/03/11 02:15:06;;;;;;;5.53;2.27;;;;;;;1.22;90.72;97819.94;4958497;28;20237;-62
2023/03/11 02:17:36;;;;;;;3.33;1.93;;;;;;;1.18;91.47;97818.53;4955842;28;20590;-62
2023/03/11 02:20:16;;;;;;;6.13;1.87;;;;;;;1.14;90.45;97822.25;4958847;28;20642;-62
2023/03/11 02:22:43;;;;;;;6.60;2.30;;;;;;;1.08;91.11;97832.97;4955554;28;20248;-62
2023/03/11 02:25:21;;;;;;;4.13;1.90;;;;;;;1.02;91.88;97819.66;4956806;28;20221;-62
2023/03/11 02:27:52;;;;;;;4.23;1.80;;;;;;;0.95;92.93;97830.47;4954682;28;20238;-63
2023/03/11 02:30:23;;;;;;;5.33;1.73;;;;;;;0.86;91.92;97814.78;4957689;28;20232;-63
2023/03/11 02:32:50;;;;;;;7.20;2.40;;;;;;;0.77;91.36;97812.06;4955938;28;20267;-62
2023/03/11 02:35:18;;;;;;;4.77;1.87;;;;;;;0.66;89.19;97794.81;4959193;28;20320;-62
2023/03/11 02:37:46;;;;;;;6.17;2.00;;;;;;;0.60;89.99;97806.34;4959558;28;20284;-62
2023/03/11 02:40:35;;;;;;;5.50;1.93;;;;;;;0.55;91.46;97814.38;4963816;28;20221;-62
2023/03/11 02:43:07;;;;;;;4.33;1.60;;;;;;;0.48;90.75;97840.59;4959101;28;20240;-62
2023/03/11 02:45:35;;;;;;;7.10;1.70;;;;;;;0.45;91.52;97836.50;4958939;28;20588;-62
2023/03/11 02:48:03;;;;;;;7.27;1.70;;;;;;;0.36;90.86;97843.06;4961462;28;20266;-62
2023/03/11 02:50:33;;;;;;;5.80;1.50;;;;;;;0.32;89.42;97849.34;4957938;28;20252;-62
2023/03/11 02:53:00;;;;;;;3.70;1.70;;;;;;;0.36;89.70;97845.66;4960987;28;20249;-62
2023/03/11 02:55:27;;;;;;;4.83;1.60;;;;;;;0.37;88.70;97826.75;4961066;28;20250;-63
2023/03/11 02:57:55;;;;;;;3.37;1.67;;;;;;;0.33;89.21;97815.06;4950044;28;20237;-62
2023/03/11 03:00:23;;;;;;;5.60;1.53;;;;;;;0.31;90.34;97818.66;4958631;28;20233;-62
2023/03/11 03:02:56;;;;;;;5.70;1.60;;;;;;;0.20;90.88;97809.13;4961214;28;20237;-62
2023/03/11 03:05:24;;;;;;;4.73;1.40;;;;;;;0.11;91.17;97798.56;4952301;28;21685;-62
2023/03/11 03:07:52;;;;;;;6.77;1.77;;;;;;;0.08;92.58;97793.63;4959426;28;20252;-62
2023/03/11 03:10:21;;;;;;;4.87;1.80;;;;;;;0.00;92.78;97793.38;4963133;28;20775;-63
2023/03/11 03:12:47;;;;;;;6.17;1.57;;;;;;;-0.01;92.77;97786.59;4975157;28;20686;-62
2023/03/11 03:15:14;;;;;;;3.40;1.57;;;;;;;-0.03;92.87;97788.44;4960950;28;20632;-62
2023/03/11 03:17:44;;;;;;;4.30;1.63;;;;;;;-0.08;93.25;97805.88;4959156;28;20683;-62
2023/03/11 03:20:13;;;;;;;5.27;1.30;;;;;;;-0.06;92.91;97796.34;4963445;28;20290;-62
2023/03/11 03:22:42;;;;;;;8.87;2.17;;;;;;;-0.17;93.58;97802.19;4958849;28;20241;-62
2023/03/11 03:25:11;;;;;;;2.90;1.70;;;;;;;-0.24;94.68;97806.91;4960989;28;20223;-62
2023/03/11 03:27:39;;;;;;;4.33;2.07;;;;;;;-0.16;93.68;97814.09;4948386;28;20223;-62
2023/03/11 03:30:08;;;;;;;2.80;1.60;;;;;;;-0.27;92.49;97814.81;4961705;28;20240;-61
2023/03/11 03:32:36;;;;;;;3.33;1.47;;;;;;;-0.33;93.61;97821.16;4933814;28;20233;-61
2023/03/11 03:35:06;;;;;;;5.50;1.67;;;;;;;-0.44;94.34;97821.03;4971483;28;20599;-62
2023/03/11 03:37:52;;;;;;;6.37;1.97;;;;;;;-0.49;95.04;97830.78;4938924;28;20257;-62
2023/03/11 03:40:21;;;;;;;5.17;2.00;;;;;;;-0.60;94.69;97841.75;4948830;28;20235;-62
2023/03/11 03:42:48;;;;;;;7.30;1.73;;;;;;;-0.70;95.76;97828.72;4958198;28;20339;-62
2023/03/11 03:45:16;;;;;;;5.87;1.70;;;;;;;-0.81;96.26;97849.91;4962789;28;20231;-62
2023/03/11 03:47:43;;;;;;;6.63;2.07;;;;;;;-0.89;97.32;97849.56;4959734;28;20222;-62
2023/03/11 03:50:12;;;;;;;5.77;1.60;;;;;;;-1.01;98.14;97852.91;4966025;28;20233;-62
2023/03/11 03:52:43;;;;;;;3.73;1.60;;;;;;;-1.10;98.74;97860.28;4965062;28;20274;-62
2023/03/11 03:55:10;;;;;;;7.50;1.70;;;;;;;-1.25;100.00;97851.78;4964375;28;20940;-62
2023/03/11 03:57:37;;;;;;;7.13;1.83;;;;;;;-1.32;100.00;97842.84;4965944;28;20581;-62
2023/03/11 04:00:08;;;;;;;6.43;1.43;;;;;;;-1.42;100.00;97842.59;4967065;28;20237;-62
2023/03/11 04:02:40;;;;;;;5.67;1.67;;;;;;;-1.45;100.00;97849.63;4967709;28;20723;-62
2023/03/11 04:05:12;;;;;;;5.53;1.60;;;;;;;-1.54;100.00;97844.16;4970437;28;20228;-62
2023/03/11 04:07:40;;;;;;;7.30;1.90;;;;;;;-1.45;100.00;97841.97;4963980;28;20289;-62
2023/03/11 04:10:17;;;;;;;5.40;1.50;;;;;;;-1.43;100.00;97842.69;4971488;28;20329;-62
2023/03/11 04:12:45;;;;;;;4.87;1.83;;;;;;;-1.51;100.00;97843.97;4898847;28;20229;-62
2023/03/11 04:15:12;;;;;;;4.70;1.67;;;;;;;-1.66;100.00;97840.63;4966189;28;20841;-62
2023/03/11 04:17:40;;;;;;;5.73;1.50;;;;;;;-1.75;100.00;97830.94;4962566;28;20228;-62
2023/03/11 04:20:09;;;;;;;7.20;1.83;;;;;;;-1.81;100.00;97839.00;4966103;28;20752;-62
2023/03/11 04:22:38;;;;;;;3.67;1.80;;;;;;;-1.84;100.00;97831.50;4961696;28;20230;-63
2023/03/11 04:25:06;;;;;;;5.57;1.83;;;;;;;-1.84;100.00;97836.63;4964040;28;20698;-63
2023/03/11 04:27:33;;;;;;;7.07;1.83;;;;;;;-1.87;100.00;97837.63;4976860;28;20226;-64
2023/03/11 04:32:53;;;;;;;8.67;1.90;;;;;;;-1.98;100.00;97840.81;5069644;23;20236;-57
2023/03/11 04:35:20;;;;;;;3.77;1.73;;;;;;;-2.00;100.00;97841.84;4982425;28;20219;-55
2023/03/11 04:37:49;;;;;;;5.23;1.77;;;;;;;-2.03;100.00;97857.34;4981854;28;20310;-58
2023/03/11 04:40:17;;;;;;;6.77;1.60;;;;;;;-2.07;100.00;97856.69;4984874;28;20315;-58
2023/03/11 04:42:44;;;;;;;6.83;1.60;;;;;;;-2.13;100.00;97852.78;4965425;28;20237;-59
2023/03/11 04:45:12;;;;;;;5.23;1.67;;;;;;;-2.12;100.00;97859.53;4980604;28;20229;-57
2023/03/11 04:47:39;;;;;;;2.83;1.40;;;;;;;-2.21;100.00;97870.31;4978614;28;20596;-58
2023/03/11 04:50:07;;;;;;;9.13;1.50;;;;;;;-2.12;100.00;97871.53;4981591;28;20225;-58
2023/03/11 04:52:33;;;;;;;11.13;2.10;;;;;;;-2.14;100.00;97863.13;4963893;28;20226;-58
2023/03/11 04:55:01;;;;;;;8.83;1.60;;;;;;;-2.16;100.00;97875.16;4965595;28;20229;-57
2023/03/11 04:57:31;;;;;;;3.60;1.60;;;;;;;-2.14;100.00;97878.47;4960954;28;20551;-56
2023/03/11 04:59:58;;;;;;;5.13;1.70;;;;;;;-2.16;100.00;97875.16;4967028;28;20692;-55
2023/03/11 05:02:25;;;;;;;4.17;1.70;;;;;;;-2.18;100.00;97869.31;4964578;28;20257;-58
2023/03/11 05:04:57;;;;;;;7.00;1.90;;;;;;;-2.21;100.00;97872.06;4954820;28;20230;-58
2023/03/11 05:07:24;;;;;;;6.03;2.00;;;;;;;-2.25;100.00;97869.66;4964253;28;20217;-56
2023/03/11 05:09:52;;;;;;;4.30;1.60;;;;;;;-2.14;100.00;97879.25;4964022;28;20291;-57
2023/03/11 05:12:20;;;;;;;4.87;1.80;;;;;;;-2.03;100.00;97870.94;4967597;28;20236;-57
2023/03/11 05:14:50;;;;;;;6.03;1.80;;;;;;;-2.07;100.00;97864.38;4962233;28;20229;-58
2023/03/11 05:17:18;;;;;;;4.07;2.10;;;;;;;-2.08;100.00;97867.84;4964205;28;20939;-58
2023/03/11 05:19:46;;;;;;;3.20;1.43;;;;;;;-2.06;100.00;97866.00;4976367;28;20233;-56
2023/03/11 05:22:20;;;;;;;6.20;2.10;;;;;;;-2.01;100.00;97863.22;4971719;28;20311;-58
2023/03/11 05:24:48;;;;;;;5.33;1.53;;;;;;;-2.00;100.00;97865.66;4959840;28;20243;-58
2023/03/11 05:27:16;;;;;;;7.57;1.63;;;;;;;-2.00;100.00;97868.22;4951561;28;20230;-56
2023/03/11 05:29:48;;;;;;;5.50;1.70;;;;;;;-1.98;100.00;97858.72;4970747;28;20319;-55
2023/03/11 05:32:18;;;;;;;5.63;1.60;;;;;;;-2.00;100.00;97855.44;4963592;28;20260;-58
2023/03/11 05:34:46;;;;;;;4.97;1.60;;;;;;;-2.00;100.00;97867.41;4959790;28;20261;-57
2023/03/11 05:37:14;;;;;;;6.00;1.63;;;;;;;-2.09;100.00;97874.72;4966535;28;20287;-57
2023/03/11 05:39:41;;;;;;;8.07;1.53;;;;;;;-2.12;100.00;97868.97;4961412;28;20307;-58
2023/03/11 05:42:10;;;;;;;3.70;1.57;;;;;;;-2.11;100.00;97873.13;4979660;28;21336;-57
2023/03/11 05:44:37;;;;;;;7.97;1.40;;;;;;;-2.11;100.00;97879.09;4978988;28;20228;-58
2023/03/11 05:47:05;;;;;;;6.03;1.73;;;;;;;-2.02;100.00;97874.34;4964373;28;20660;-59
2023/03/11 05:49:32;;;;;;;5.17;2.00;;;;;;;-2.05;100.00;97879.66;4961432;28;20233;-59
2023/03/11 05:52:00;;;;;;;7.33;1.80;;;;;;;-2.09;100.00;97877.25;4963429;28;20314;-56
2023/03/11 05:54:28;;;;;;;7.43;1.47;;;;;;;-2.13;100.00;97870.69;4960640;28;20235;-57
2023/03/11 05:56:55;;;;;;;5.03;1.50;;;;;;;-2.21;100.00;97880.53;4964301;28;20232;-54
2023/03/11 05:59:23;;;;;;;6.60;1.60;;;;;;;-2.16;100.00;97875.16;4953266;28;20218;-58
2023/03/11 06:01:55;;;;;;;10.10;1.63;;;;;;;-2.16;100.00;97875.97;4962590;28;20562;-59
2023/03/11 06:04:24;;;;;;;6.57;1.97;;;;;;;-2.13;100.00;97878.34;4962586;28;20246;-58
2023/03/11 06:06:51;;;;;;;11.53;5.33;;;;;;;-2.10;100.00;97883.28;4961110;28;20244;-58
2023/03/11 06:09:21;;;;;;;7.67;2.60;;;;;;;-2.02;100.00;97876.91;4963262;28;20311;-56
2023/03/11 06:11:48;;;;;;;8.60;4.70;;;;;;;-1.98;100.00;97876.63;4963522;28;20232;-58
2023/03/11 06:14:16;;;;;;;12.70;6.63;;;;;;;-1.89;100.00;97874.44;4971096;28;20220;-57
2023/03/11 06:16:46;;;;;;;11.57;5.83;;;;;;;-1.77;100.00;97868.59;4968120;28;20747;-55
2023/03/11 06:19:13;;;;;;;9.70;6.40;;;;;;;-1.71;100.00;97885.34;4970800;28;20231;-58
2023/03/11 06:21:46;;;;;;;7.07;3.27;;;;;;;-1.59;100.00;97883.75;4967871;28;20249;-57
2023/03/11 06:24:13;;;;;;;7.40;3.90;;;;;;;-1.52;100.00;97885.84;4986505;28;20693;-54
2023/03/11 06:26:40;;;;;;;9.80;3.57;;;;;;;-1.48;100.00;97894.16;4967672;28;21116;-57
2023/03/11 06:29:12;;;;;;;5.63;3.20;;;;;;;-1.36;100.00;97907.94;4972138;28;20257;-57
2023/03/11 06:31:40;;;;;;;7.60;3.00;;;;;;;-1.33;100.00;97912.88;4984113;28;20325;-58
2023/03/11 06:34:10;;;;;;;7.97;2.50;;;;;;;-1.30;100.00;97920.38;4970231;28;20225;-55
2023/03/11 06:36:37;;;;;;;5.43;2.33;;;;;;;-1.26;100.00;97928.72;4970941;28;20224;-56
2023/03/11 06:39:05;;;;;;;7.00;2.07;;;;;;;-1.22;100.00;97925.88;4971979;28;20578;-57
2023/03/11 06:41:34;;;;;;;5.43;2.17;;;;;;;-1.13;100.00;97918.53;4968494;28;20307;-56
2023/03/11 06:44:03;;;;;;;5.43;1.60;;;;;;;-1.02;100.00;97912.72;4987717;28;20248;-57
2023/03/11 06:46:30;;;;;;;4.93;1.70;;;;;;;-0.88;100.00;97912.69;4968208;28;20250;-56
2023/03/11 06:48:57;;;;;;;6.27;2.37;;;;;;;-0.76;100.00;97924.75;4967419;28;20234;-55
2023/03/11 06:51:24;;;;;;;5.37;2.30;;;;;;;-0.68;100.00;97928.56;4969690;28;20237;-58
2023/03/11 06:53:52;;;;;;;9.43;3.13;;;;;;;-0.55;100.00;97938.88;4969453;28;20313;-58
2023/03/11 06:56:23;;;;;;;12.93;5.00;;;;;;;-0.53;100.00;97948.09;4970547;28;20590;-58
2023/03/11 06:58:55;;;;;;;8.23;2.83;;;;;;;-0.50;100.00;97949.63;4967735;28;20236;-58
2023/03/11 07:01:25;;;;;;;5.67;2.53;;;;;;;-0.54;100.00;97943.91;4968315;28;20299;-55
2023/03/11 07:03:54;;;;;;;7.40;2.40;;;;;;;-0.54;100.00;97941.34;4977067;28;20725;-58
2023/03/11 07:06:24;;;;;;;8.77;2.47;;;;;;;-0.61;100.00;97946.03;4971263;28;20322;-58
2023/03/11 07:08:53;;;;;;;7.40;2.20;;;;;;;-0.62;100.00;97951.25;4970057;28;20718;-56
2023/03/11 07:11:23;;;;;;;5.07;2.33;;;;;;;-0.60;100.00;97951.97;4969489;28;20254;-58
2023/03/11 07:13:54;;;;;;;8.93;2.10;;;;;;;-0.65;100.00;97961.69;4967053;28;20311;-58
2023/03/11 07:16:24;;;;;;;4.77;1.90;;;;;;;-0.60;100.00;97969.91;4972223;28;20586;-58
2023/03/11 07:18:57;;;;;;;5.07;2.20;;;;;;;-0.58;100.00;97964.72;4985264;28;20249;-58
2023/03/11 07:21:24;;;;;;;5.87;2.13;;;;;;;-0.57;100.00;97969.72;4970585;28;20249;-56
2023/03/11 07:23:53;;;;;;;9.10;2.07;;;;;;;-0.57;100.00;97977.41;4966726;28;20530;-58
2023/03/11 07:26:19;;;;;;;4.37;1.83;;;;;;;-0.61;100.00;97981.09;4968995;28;20227;-58
2023/03/11 07:28:48;;;;;;;5.47;1.80;;;;;;;-0.64;100.00;97984.69;4966400;28;20237;-59
2023/03/11 07:31:16;;;;;;;5.03;2.07;;;;;;;-0.62;100.00;97984.56;4969001;28;20304;-58
2023/03/11 07:33:43;;;;;;;5.93;2.00;;;;;;;-0.65;100.00;97985.59;4966540;28;20239;-57
2023/03/11 07:36:12;;;;;;;8.53;2.43;;;;;;;-0.61;100.00;97992.19;4969133;28;20588;-58
2023/03/11 07:38:39;;;;;;;8.30;2.40;;;;;;;-0.55;100.00;97990.16;4965510;28;20222;-56
2023/03/11 07:41:06;;;;;;;5.30;1.70;;;;;;;-0.62;100.00;97994.81;4967345;28;20240;-58
2023/03/11 07:43:34;;;;;;;6.43;2.10;;;;;;;-0.56;100.00;97996.19;4963974;28;20225;-58
2023/03/11 07:46:07;;;;;;;8.33;1.70;;;;;;;-0.55;100.00;98001.22;4968359;28;20233;-59
2023/03/11 07:48:34;;;;;;;7.20;2.00;;;;;;;-0.52;100.00;97993.34;4965334;28;20229;-58
2023/03/11 07:51:02;;;;;;;7.70;1.50;;;;;;;-0.44;100.00;97997.97;4968834;28;20244;-58
2023/03/11 07:53:39;;;;;;;;;;;;;;;;;;;;;
2023/03/11 07:56:07;;;;;;;7.13;1.83;;;;;;;-0.23;100.00;98002.66;4969165;28;20235;-59
2023/03/11 07:58:34;;;;;;;7.13;1.87;;;;;;;-0.20;100.00;98011.00;4965637;28;20225;-58
2023/03/11 08:01:05;;;;;;;6.23;1.53;;;;;;;-0.18;100.00;98013.44;4967392;28;20233;-59
2023/03/11 08:03:32;;;;;;;3.97;2.03;;;;;;;-0.06;100.00;98022.13;4965106;28;20584;-59
2023/03/11 08:05:59;;;;;;;11.47;4.43;;;;;;;0.06;99.29;98017.94;4966389;28;20240;-59
2023/03/11 08:08:26;;;;;;;7.37;3.00;;;;;;;0.20;98.74;98024.72;4968207;28;20214;-58
2023/03/11 08:10:52;;;;;;;6.63;2.23;;;;;;;0.36;94.24;98022.00;4966975;28;20229;-58
2023/03/11 08:13:20;;;;;;;10.23;2.63;;;;;;;0.58;91.38;98017.03;4967302;28;20233;-58
2023/03/11 08:15:47;;;;;;;11.23;3.43;;;;;;;0.71;87.65;98029.91;4955763;28;20295;-58
2023/03/11 08:18:14;;;;;;;10.60;4.57;;;;;;;0.83;87.19;98024.88;4951623;28;20879;-58
2023/03/11 08:20:41;;;;;;;10.57;4.70;;;;;;;0.92;86.89;98013.97;4954702;28;20226;-58
2023/03/11 08:23:08;;;;;;;10.80;3.20;;;;;;;0.98;85.14;98023.00;4949515;28;20238;-59
2023/03/11 08:25:38;;;;;;;7.97;2.83;;;;;;;1.12;84.39;98022.03;4963059;28;20645;-58
2023/03/11 08:28:06;;;;;;;7.57;2.47;;;;;;;1.09;84.09;98028.22;4959155;28;20234;-58
2023/03/11 08:30:33;;;;;;;10.23;2.33;;;;;;;1.00;81.96;98021.97;4965179;28;20256;-58
2023/03/11 08:32:59;;;;;;;5.93;2.00;;;;;;;1.03;82.35;98015.78;4966418;28;20316;-59
2023/03/11 08:35:27;;;;;;;5.37;1.90;;;;;;;0.93;82.23;98025.88;4965992;28;20229;-58
2023/03/11 08:38:04;;;;;;;9.07;2.37;;;;;;;0.87;82.29;98021.16;4964923;28;20860;-61
2023/03/11 08:40:31;;;;;;;13.20;3.53;;;;;;;0.84;82.76;98021.38;4955091;28;20535;-59
2023/03/11 08:42:57;;;;;;;8.27;2.80;;;;;;;0.87;83.87;98016.03;4947938;28;20241;-58
2023/03/11 08:45:24;;;;;;;6.97;2.40;;;;;;;1.02;84.49;98030.41;4948318;28;20289;-59
2023/03/11 08:47:51;;;;;;;9.53;2.10;;;;;;;1.19;84.82;98030.97;4964002;28;20237;-58
2023/03/11 08:50:19;;;;;;;9.73;2.03;;;;;;;1.38;83.35;98035.66;4966273;28;20713;-58
2023/03/11 08:52:47;;;;;;;7.23;2.03;;;;;;;1.39;79.72;98041.63;4963646;28;20243;-59
2023/03/11 08:55:16;;;;;;;6.50;1.93;;;;;;;1.62;83.25;98047.72;4967286;28;20225;-58
2023/03/11 08:57:43;;;;;;;11.03;2.50;;;;;;;1.79;82.05;98046.53;4963710;28;20244;-59
2023/03/11 09:00:12;;;;;;;7.33;2.43;;;;;;;1.96;80.59;98044.50;4966591;28;20241;-59
2023/03/11 09:02:40;;;;;;;6.07;1.90;;;;;;;2.05;78.00;98051.56;4963263;28;20697;-58
2023/03/11 09:05:07;;;;;;;5.47;2.03;;;;;;;2.17;74.99;98055.81;4966956;28;20730;-59
2023/03/11 09:07:33;;;;;;;4.30;1.73;;;;;;;2.41;74.04;98054.94;4967391;28;20233;-58
2023/03/11 09:10:01;;;;;;;14.07;2.30;;;;;;;2.48;71.14;98039.88;4966057;28;20625;-57
2023/03/11 09:12:29;;;;;;;8.23;2.30;;;;;;;2.58;71.96;98042.56;4965856;28;20228;-56
2023/03/11 09:14:56;;;;;;;7.57;1.97;;;;;;;2.66;72.73;98046.22;4964655;28;20850;-58
2023/03/11 09:17:22;;;;;;;9.10;1.90;;;;;;;2.68;71.52;98051.25;4963935;28;20241;-57
2023/03/11 09:19:49;;;;;;;6.70;1.60;;;;;;;2.38;69.45;98054.38;4962817;28;20237;-58
2023/03/11 09:22:16;;;;;;;4.80;1.73;;;;;;;2.39;70.43;98051.66;4967796;28;20230;-59
2023/03/11 09:24:42;;;;;;;5.47;1.87;;;;;;;2.47;71.17;98053.69;4964928;28;20242;-59
2023/03/11 09:27:11;;;;;;;4.53;1.57;;;;;;;2.47;71.35;98053.69;4964597;28;20226;-56
2023/03/11 09:29:38;;;;;;;8.23;1.90;;;;;;;2.58;71.03;98053.72;4963255;28;20876;-59
2023/03/11 09:32:05;;;;;;;5.97;1.60;;;;;;;2.62;67.93;98062.03;4965644;28;20241;-58
2023/03/11 09:34:32;;;;;;;6.33;1.73;;;;;;;2.72;65.60;98062.16;4962761;28;20233;-59
2023/03/11 09:36:58;;;;;;;6.18;1.63;;;;;;;2.92;66.04;98058.91;4965710;28;20445;-59
2023/03/11 09:39:25;;;;;;;6.00;1.50;;;;;;;2.98;66.31;98056.78;4962061;28;20232;-58
2023/03/11 09:41:54;;;;;;;7.40;1.47;;;;;;;3.17;65.56;98051.88;4965109;28;20713;-59
2023/03/11 09:44:27;;;;;;;4.70;1.43;;;;;;;3.15;66.12;98058.09;4966935;28;20735;-59
2023/03/11 09:47:25;;;;;;;7.43;1.70;;;;;;;3.14;64.85;98059.84;4963444;28;20224;-57
2023/03/11 09:50:06;;;;;;;5.73;1.43;;;;;;;3.14;65.35;98059.84;4944071;28;20736;-56
2023/03/11 09:52:40;;;;;;;4.47;1.53;;;;;;;3.07;62.44;98050.94;4961878;28;20264;-59
2023/03/11 09:55:24;;;;;;;6.27;1.57;;;;;;;3.16;64.19;98052.00;4963208;28;20230;-59
2023/03/11 09:57:53;;;;;;;5.53;2.10;;;;;;;2.91;65.15;98051.28;4951939;28;20241;-58
2023/03/11 10:00:23;;;;;;;5.57;1.37;;;;;;;3.11;63.76;98062.66;4951477;28;20291;-59
2023/03/11 10:02:50;;;;;;;6.47;1.90;;;;;;;3.03;64.70;98055.53;4957570;28;20247;-55
2023/03/11 10:05:22;;;;;;;9.47;1.60;;;;;;;2.78;64.52;98064.25;4952720;28;20237;-59
2023/03/11 10:07:57;;;;;;;7.43;1.70;;;;;;;2.78;62.95;98061.69;4963922;28;20809;-58
2023/03/11 10:10:25;;;;;;;5.27;1.77;;;;;;;2.55;65.12;98058.25;4965859;28;20222;-59
2023/03/11 10:12:59;;;;;;;7.07;1.43;;;;;;;2.60;65.17;98061.31;4945373;28;20242;-58
2023/03/11 10:15:38;;;;;;;6.50;2.23;;;;;;;2.39;67.08;98061.16;4947794;28;20232;-59
2023/03/11 10:18:17;;;;;;;6.83;1.57;;;;;;;2.24;66.04;98060.50;4960696;28;20239;-60
2023/03/11 10:20:54;;;;;;;4.20;1.67;;;;;;;2.19;66.34;98059.09;4962207;28;20629;-59
2023/03/11 10:23:26;;;;;;;7.67;1.60;;;;;;;2.32;65.54;98058.19;4964163;28;20224;-60
2023/03/11 10:26:02;;;;;;;5.20;1.20;;;;;;;2.60;63.96;98053.59;4963289;28;20558;-57
2023/03/11 10:28:35;;;;;;;7.67;1.40;;;;;;;2.69;64.11;98052.06;4962332;28;21070;-59
2023/03/11 10:31:07;;;;;;;8.73;1.47;;;;;;;2.64;63.67;98048.09;4962524;28;20230;-60
2023/03/11 10:33:39;;;;;;;5.13;1.47;;;;;;;2.86;61.99;98043.88;4961633;28;20284;-59
2023/03/11 10:36:12;;;;;;;7.30;1.67;;;;;;;2.82;62.10;98046.81;4965130;28;20236;-59
2023/03/11 10:38:42;;;;;;;7.97;1.90;;;;;;;2.87;62.06;98052.47;4962541;28;20226;-59
2023/03/11 10:41:18;;;;;;;4.13;1.00;;;;;;;3.02;61.02;98048.72;4965228;28;20236;-59
2023/03/11 10:43:49;;;;;;;7.53;2.13;;;;;;;3.14;61.54;98057.25;4963590;28;20233;-59
2023/03/11 10:46:19;;;;;;;3.57;1.10;;;;;;;3.37;59.30;98052.09;4980932;28;20711;-58
2023/03/11 10:48:46;;;;;;;5.37;1.40;;;;;;;3.18;59.67;98063.81;4962773;28;20233;-59
2023/03/11 10:51:21;;;;;;;4.23;1.07;;;;;;;3.20;57.98;98066.28;4965679;28;21207;-59
2023/03/11 10:53:50;;;;;;;7.73;1.13;;;;;;;3.02;56.39;98063.34;4963345;28;20724;-58
2023/03/11 10:56:29;;;;;;;2.80;0.90;;;;;;;2.82;55.20;98057.13;4965449;28;20625;-59
2023/03/11 10:58:56;;;;;;;2.60;1.13;;;;;;;2.68;50.61;98053.00;4964189;28;20907;-59
2023/03/11 11:01:24;;;;;;;3.57;0.70;;;;;;;2.77;54.26;98048.00;4967787;28;20220;-59
2023/03/11 11:03:54;;;;;;;4.23;0.83;;;;;;;2.83;54.91;98064.75;4968791;28;20230;-58
2023/03/11 11:06:25;;;;;;;2.30;0.83;;;;;;;2.76;55.61;98068.72;4984778;28;20632;-59
2023/03/11 11:09:06;;;;;;;4.33;0.90;;;;;;;2.89;56.04;98056.53;4967719;28;20241;-59
2023/03/11 11:11:34;;;;;;;4.87;1.00;;;;;;;2.88;54.13;98057.47;4964944;28;20228;-60
2023/03/11 11:14:01;;;;;;;4.83;1.20;;;;;;;2.94;56.88;98058.78;4968990;28;20232;-59
2023/03/11 11:16:29;;;;;;;7.57;1.03;;;;;;;3.16;56.60;98049.41;4967801;28;20277;-59
2023/03/11 11:19:02;;;;;;;4.33;1.40;;;;;;;3.15;55.53;98053.75;4965432;28;20248;-60
2023/03/11 11:21:32;;;;;;;3.77;0.90;;;;;;;3.01;54.23;98047.06;4968871;28;20224;-59
2023/03/11 11:24:06;;;;;;;7.73;4.20;;;;;;;3.12;55.53;98040.28;4967895;28;20688;-60
2023/03/11 11:26:33;;;;;;;1.93;0.63;;;;;;;3.20;54.27;98053.38;4966800;28;20320;-59
2023/03/11 11:29:12;;;;;;;6.40;1.00;;;;;;;3.28;55.07;98045.06;4968797;28;20703;-60
2023/03/11 11:31:42;;;;;;;5.73;1.10;;;;;;;3.37;55.57;98046.94;4965195;28;20724;-60
2023/03/11 11:34:27;;;;;;;2.53;0.90;;;;;;;3.31;51.88;98052.56;4965120;28;20253;-59
2023/03/11 11:36:57;;;;;;;4.00;1.00;;;;;;;3.35;51.92;98046.22;4958389;28;20316;-61
2023/03/11 11:39:26;;;;;;;4.17;1.00;;;;;;;3.51;53.90;98045.84;4959991;28;20250;-60
2023/03/11 11:41:55;;;;;;;6.27;1.20;;;;;;;3.52;53.82;98034.59;4961005;28;20298;-59
2023/03/11 11:44:28;;;;;;;3.17;0.97;;;;;;;3.53;53.74;98044.81;4962637;28;20664;-59
2023/03/11 11:46:59;;;;;;;5.43;1.10;;;;;;;3.64;53.51;98043.13;4967681;28;20233;-58
2023/03/11 11:49:29;;;;;;;11.10;1.40;;;;;;;3.71;53.80;98046.03;4965255;28;20214;-59